createdAt,value
2023-02-08T00:07:50.436Z,24.37
2023-02-08T00:17:54.722Z,21.63
2023-02-08T00:27:58.743Z,22.17
2023-02-08T00:38:02.789Z,28.13
2023-02-08T00:48:08.542Z,24.03
2023-02-08T00:58:11.731Z,27.03
2023-02-08T01:08:19.947Z,20.47
2023-02-08T01:18:22.561Z,28.17
2023-02-08T01:28:24.745Z,27.37
2023-02-08T01:38:29.635Z,27.47
2023-02-08T01:48:39.640Z,25.40
2023-02-08T01:58:51.122Z,21.03
2023-02-08T02:09:02.165Z,29.07
2023-02-08T02:19:17.744Z,23.80
2023-02-08T02:29:34.758Z,26.10
2023-02-08T02:39:42.805Z,30.43
2023-02-08T02:50:08.141Z,30.10
2023-02-08T03:00:14.169Z,28.57
2023-02-08T03:10:33.404Z,28.40
2023-02-08T03:21:03.276Z,24.60
2023-02-08T03:31:41.329Z,22.00
2023-02-08T03:41:46.773Z,28.77
2023-02-08T03:51:54.513Z,22.47
2023-02-08T04:02:03.101Z,24.13
2023-02-08T04:12:08.137Z,29.47
2023-02-08T04:22:14.786Z,24.67
2023-02-08T04:32:21.745Z,24.27
2023-02-08T04:42:33.643Z,24.70
2023-02-08T04:52:35.960Z,23.80
2023-02-08T05:02:40.305Z,33.27
2023-02-08T05:12:45.956Z,27.20
2023-02-08T05:22:52.419Z,33.83
2023-02-08T05:32:55.673Z,36.17
2023-02-08T05:43:02.462Z,35.63
2023-02-08T05:53:07.003Z,36.83
2023-02-08T06:03:09.125Z,32.87
2023-02-08T06:13:13.384Z,40.87
2023-02-08T06:23:18.052Z,43.77
2023-02-08T06:33:23.229Z,35.10
2023-02-08T06:43:28.226Z,36.30
2023-02-08T06:53:33.002Z,32.83
2023-02-08T07:03:36.568Z,33.37
2023-02-08T07:13:39.689Z,35.70
2023-02-08T07:23:41.911Z,26.43
2023-02-08T07:33:47.421Z,22.23
2023-02-08T07:43:49.591Z,23.03
2023-02-08T07:53:54.553Z,27.63
2023-02-08T08:03:59.464Z,26.60
2023-02-08T08:14:04.784Z,27.73
2023-02-08T08:24:10.157Z,30.57
2023-02-08T08:34:17.028Z,34.67
2023-02-08T08:44:19.297Z,26.80
2023-02-08T08:54:26.823Z,24.00
2023-02-08T09:04:29.083Z,27.13
2023-02-08T09:14:34.617Z,25.43
2023-02-08T09:24:41.282Z,27.03
2023-02-08T09:34:43.366Z,26.60
2023-02-08T09:44:48.473Z,20.47
2023-02-08T09:54:54.872Z,21.37
2023-02-08T10:05:19.861Z,17.83
2023-02-08T10:15:59.126Z,20.13
2023-02-08T10:26:14.003Z,15.03
2023-02-08T10:36:21.173Z,17.70
2023-02-08T10:46:28.249Z,15.80
2023-02-08T10:56:40.377Z,10.07
2023-02-08T11:06:45.400Z,4.63
2023-02-08T11:16:55.534Z,5.70
2023-02-08T11:27:03.192Z,7.73
2023-02-08T11:37:26.731Z,5.10
2023-02-08T11:47:34.779Z,6.00
2023-02-08T11:57:55.242Z,10.80
2023-02-08T12:08:28.851Z,10.67
2023-02-08T12:18:55.920Z,12.87
2023-02-08T12:29:47.726Z,10.77
2023-02-08T12:40:31.776Z,9.40
2023-02-08T12:51:11.725Z,8.20
2023-02-08T13:01:23.502Z,9.23
2023-02-08T13:11:28.765Z,9.53
2023-02-08T13:21:38.210Z,6.17
2023-02-08T13:31:51.999Z,6.23
2023-02-08T13:41:55.832Z,7.37
2023-02-08T13:52:02.437Z,8.67
2023-02-08T14:02:15.103Z,7.67
2023-02-08T14:12:37.274Z,9.53
2023-02-08T14:22:40.489Z,8.77
2023-02-08T14:32:48.414Z,10.23
2023-02-08T14:43:21.567Z,7.13
2023-02-08T14:53:35.822Z,9.30
2023-02-08T15:03:43.986Z,10.30
2023-02-08T15:13:54.064Z,11.40
2023-02-08T15:24:00.357Z,11.57
2023-02-08T15:34:04.630Z,8.37
2023-02-08T15:44:23.822Z,15.80
2023-02-08T15:54:26.639Z,11.77
2023-02-08T16:04:28.919Z,13.43
2023-02-08T16:14:50.623Z,10.57
2023-02-08T16:24:56.086Z,13.13
2023-02-08T16:35:12.152Z,9.67
2023-02-08T16:45:23.377Z,12.03
2023-02-08T16:55:27.649Z,13.17
2023-02-08T17:05:37.683Z,11.90
2023-02-08T17:15:44.986Z,12.00
2023-02-08T17:25:47.381Z,12.80
2023-02-08T17:35:52.594Z,14.20
2023-02-08T17:45:54.713Z,20.77
2023-02-08T17:55:56.948Z,13.67
2023-02-08T18:06:00.601Z,18.70
2023-02-08T18:16:18.930Z,16.87
2023-02-08T18:26:22.984Z,15.57
2023-02-08T18:36:25.157Z,19.77
2023-02-08T18:46:32.782Z,16.37
2023-02-08T18:56:37.070Z,16.40
2023-02-08T19:06:39.200Z,16.47
2023-02-08T19:16:43.912Z,16.40
2023-02-08T19:26:48.696Z,20.33
2023-02-08T19:36:54.037Z,17.77
2023-02-08T19:46:58.376Z,24.77
2023-02-08T19:57:01.866Z,21.47
2023-02-08T20:07:04.980Z,22.60
2023-02-08T20:17:09.646Z,20.60
2023-02-08T20:27:11.883Z,20.87
2023-02-08T20:37:14.037Z,22.37
2023-02-08T20:47:22.237Z,29.00
2023-02-08T20:57:25.517Z,23.70
2023-02-08T21:07:27.726Z,27.43
2023-02-08T21:17:35.306Z,26.23
2023-02-08T21:27:39.854Z,24.77
2023-02-08T21:37:44.281Z,28.20
2023-02-08T21:47:46.709Z,24.73
2023-02-08T21:57:51.210Z,29.37
2023-02-08T22:07:58.000Z,29.93
2023-02-08T22:18:04.989Z,34.47
2023-02-08T22:28:08.410Z,36.87
2023-02-08T22:38:10.568Z,42.70
2023-02-08T22:48:15.945Z,38.37
2023-02-08T22:58:23.265Z,28.30
2023-02-08T23:08:27.789Z,31.87
2023-02-08T23:18:32.067Z,27.20
2023-02-08T23:28:36.997Z,38.27
2023-02-08T23:38:42.406Z,26.07
2023-02-08T23:48:48.301Z,36.70
2023-02-08T23:58:52.644Z,37.57
